Wetterdaten: Woche 06.07.20 - 12.07.20 (KW28)
Datum Zeit Temp. Aussen Temp. o. S. Temp +5cm Feuchte Auss Luftdruck Regen Sonnenschein Regendauer Solar Windben Empfang
06.07.2020 00:00 16,7 C 15,4 C 15,4 C 72 % 1012,6 hPa 0,0 l/m 0,00 h 0,00 h 0 W/m 15,4 km/h (3 Bft) 96,29 %
06.07.2020 01:00 15,9 C 14,9 C 14,9 C 73 % 1013,0 hPa 0,0 l/m 0,00 h 0,00 h 0 W/m 14,5 km/h (3 Bft) 97,87 %
06.07.2020 02:00 15,5 C 14,3 C 14,3 C 75 % 1013,2 hPa 0,0 l/m 0,00 h 0,00 h 0 W/m 16,1 km/h (3 Bft) 97,25 %
06.07.2020 03:00 14,8 C 13,6 C 13,7 C 79 % 1013,0 hPa 0,0 l/m 0,00 h 0,00 h 0 W/m 17,7 km/h (3 Bft) 95,11 %
06.07.2020 04:00 14,0 C 12,7 C 12,9 C 82 % 1013,1 hPa 0,0 l/m 0,00 h 0,00 h 0 W/m 14,6 km/h (3 Bft) 98,31 %
06.07.2020 05:00 13,3 C 12,2 C 12,3 C 86 % 1013,2 hPa 0,0 l/m 0,00 h 0,03 h 7 W/m 16,4 km/h (3 Bft) 99,43 %
06.07.2020 06:00 12,8 C 12,2 C 12,2 C 88 % 1013,5 hPa 0,0 l/m 0,00 h 0,03 h 21 W/m 16,8 km/h (3 Bft) 94,00 %
06.07.2020 07:00 13,1 C 13,1 C 12,5 C 89 % 1013,9 hPa 0,0 l/m 0,00 h 0,00 h 51 W/m 16,6 km/h (3 Bft) 98,36 %
06.07.2020 08:00 14,7 C 16,6 C 14,8 C 84 % 1014,2 hPa 0,0 l/m 0,00 h 0,00 h 121 W/m 17,5 km/h (3 Bft) 99,07 %
06.07.2020 09:00 15,8 C 17,3 C 16,6 C 79 % 1014,6 hPa 0,0 l/m 0,30 h 0,00 h 248 W/m 16,7 km/h (3 Bft) 96,30 %
06.07.2020 10:00 16,5 C 17,0 C 16,9 C 76 % 1015,0 hPa 0,0 l/m 0,20 h 0,17 h 282 W/m 15,9 km/h (3 Bft) 96,95 %
06.07.2020 11:00 17,0 C 17,5 C 17,2 C 78 % 1015,2 hPa 0,4 l/m 0,53 h 0,27 h 458 W/m 15,1 km/h (3 Bft) 97,80 %
06.07.2020 12:00 16,8 C 15,6 C 16,1 C 79 % 1015,6 hPa 1,0 l/m 0,37 h 0,33 h 378 W/m 13,7 km/h (3 Bft) 99,52 %
06.07.2020 13:00 16,9 C 18,0 C 16,7 C 82 % 1016,2 hPa 0,0 l/m 0,17 h 0,10 h 332 W/m 14,2 km/h (3 Bft) 95,57 %
06.07.2020 14:00 18,5 C 22,1 C 18,6 C 72 % 1016,6 hPa 0,2 l/m 0,80 h 0,03 h 886 W/m 22,7 km/h (4 Bft) 96,94 %
06.07.2020 15:00 19,3 C 20,3 C 17,7 C 71 % 1017,0 hPa 0,0 l/m 0,37 h 0,17 h 403 W/m 11,6 km/h (2 Bft) 99,08 %
06.07.2020 16:00 18,2 C 18,4 C 16,8 C 72 % 1018,1 hPa 0,0 l/m 0,30 h 0,37 h 314 W/m 12,3 km/h (3 Bft) 96,23 %
06.07.2020 17:00 19,5 C 21,8 C 18,4 C 64 % 1018,6 hPa 0,0 l/m 0,83 h 0,00 h 593 W/m 12,8 km/h (3 Bft) 97,72 %
06.07.2020 18:00 18,6 C 18,2 C 17,2 C 65 % 1019,1 hPa 0,0 l/m 0,33 h 0,00 h 181 W/m 9,3 km/h (2 Bft) 97,29 %
06.07.2020 19:00 17,8 C 17,3 C 16,5 C 69 % 1019,6 hPa 0,0 l/m 0,13 h 0,03 h 133 W/m 10,4 km/h (2 Bft) 97,19 %
06.07.2020 20:00 16,7 C 15,7 C 15,4 C 70 % 1020,2 hPa 0,0 l/m 0,00 h 0,07 h 56 W/m 6,5 km/h (2 Bft) 98,79 %
06.07.2020 21:00 16,0 C 14,5 C 14,5 C 75 % 1020,7 hPa 0,0 l/m 0,00 h 0,00 h 14 W/m 2,3 km/h (1 Bft) 97,16 %
06.07.2020 22:00 14,9 C 12,7 C 12,8 C 79 % 1021,2 hPa 0,0 l/m 0,00 h 0,00 h 0 W/m 0,0 km/h (0 Bft) 96,72 %
06.07.2020 23:00 13,7 C 12,0 C 12,0 C 85 % 1021,5 hPa 0,0 l/m 0,00 h 0,00 h 0 W/m 0,0 km/h (0 Bft) 96,80 %
07.07.2020 00:00 12,7 C 10,7 C 10,9 C 87 % 1022,0 hPa 0,0 l/m 0,00 h 0,00 h 0 W/m 0,0 km/h (0 Bft) 98,07 %
07.07.2020 01:00 11,8 C 9,6 C 9,7 C 89 % 1022,1 hPa 0,0 l/m 0,00 h 0,00 h 0 W/m 0,0 km/h (0 Bft) 96,85 %
07.07.2020 02:00 11,0 C 9,1 C 9,1 C 90 % 1022,0 hPa 0,0 l/m 0,00 h 0,00 h 0 W/m 0,0 km/h (0 Bft) 97,55 %
07.07.2020 03:00 10,4 C 8,8 C 8,5 C 92 % 1022,0 hPa 0,0 l/m 0,00 h 0,00 h 0 W/m 0,0 km/h (0 Bft) 96,42 %
07.07.2020 04:00 9,8 C 8,3 C 7,9 C 92 % 1021,9 hPa 0,0 l/m 0,00 h 0,00 h 0 W/m 0,0 km/h (0 Bft) 95,71 %
07.07.2020 05:00 9,4 C 8,3 C 7,9 C 94 % 1021,7 hPa 0,0 l/m 0,00 h 0,00 h 6 W/m 0,4 km/h (0 Bft) 98,46 %
07.07.2020 06:00 9,6 C 9,2 C 8,9 C 95 % 1021,8 hPa 0,0 l/m 0,00 h 0,00 h 16 W/m 0,0 km/h (0 Bft) 98,72 %
07.07.2020 07:00 10,7 C 11,5 C 10,7 C 97 % 1021,8 hPa 0,0 l/m 0,00 h 0,00 h 44 W/m 4,9 km/h (1 Bft) 94,46 %
07.07.2020 08:00 12,8 C 15,2 C 13,8 C 96 % 1021,6 hPa 0,0 l/m 0,00 h 0,00 h 165 W/m 11,0 km/h (2 Bft) 97,02 %
07.07.2020 09:00 15,0 C 16,8 C 15,6 C 85 % 1021,4 hPa 0,0 l/m 0,20 h 0,00 h 248 W/m 13,2 km/h (3 Bft) 98,55 %
07.07.2020 10:00 16,7 C 18,5 C 17,4 C 78 % 1021,3 hPa 0,0 l/m 0,43 h 0,00 h 336 W/m 14,9 km/h (3 Bft) 95,93 %
07.07.2020 11:00 18,5 C 20,8 C 19,0 C 72 % 1020,9 hPa 0,0 l/m 0,53 h 0,00 h 449 W/m 17,1 km/h (3 Bft) 97,63 %
07.07.2020 12:00 19,9 C 22,3 C 20,8 C 65 % 1020,3 hPa 0,0 l/m 0,77 h 0,00 h 517 W/m 18,3 km/h (3 Bft) 96,60 %
07.07.2020 13:00 20,9 C 21,1 C 20,6 C 61 % 1019,7 hPa 0,0 l/m 0,27 h 0,00 h 287 W/m 13,1 km/h (3 Bft) 97,81 %
07.07.2020 14:00 19,3 C 18,8 C 18,4 C 66 % 1019,7 hPa 0,0 l/m 0,00 h 0,00 h 130 W/m 6,9 km/h (2 Bft) 97,90 %
07.07.2020 15:00 19,2 C 19,4 C 18,1 C 68 % 1019,6 hPa 0,0 l/m 0,07 h 0,00 h 186 W/m 3,6 km/h (1 Bft) 96,95 %
07.07.2020 16:00 20,4 C 23,0 C 20,2 C 66 % 1019,3 hPa 0,0 l/m 0,50 h 0,00 h 359 W/m 9,0 km/h (2 Bft) 98,08 %
07.07.2020 17:00 22,2 C 24,0 C 20,6 C 58 % 1018,8 hPa 0,0 l/m 0,93 h 0,00 h 541 W/m 12,6 km/h (3 Bft) 97,04 %
07.07.2020 18:00 21,1 C 21,0 C 19,3 C 58 % 1018,6 hPa 0,0 l/m 0,50 h 0,00 h 223 W/m 10,0 km/h (2 Bft) 98,38 %
07.07.2020 19:00 20,2 C 19,5 C 18,4 C 61 % 1018,3 hPa 0,0 l/m 0,07 h 0,00 h 119 W/m 8,5 km/h (2 Bft) 95,28 %
07.07.2020 20:00 19,2 C 17,7 C 17,2 C 63 % 1018,1 hPa 0,0 l/m 0,00 h 0,00 h 32 W/m 3,8 km/h (1 Bft) 98,17 %
07.07.2020 21:00 18,2 C 16,4 C 16,0 C 66 % 1017,8 hPa 0,0 l/m 0,00 h 0,00 h 7 W/m 0,0 km/h (0 Bft) 99,36 %
07.07.2020 22:00 17,3 C 14,6 C 14,5 C 72 % 1017,7 hPa 0,0 l/m 0,00 h 0,23 h 0 W/m 0,7 km/h (0 Bft) 95,37 %
07.07.2020 23:00 16,2 C 14,3 C 13,8 C 77 % 1017,4 hPa 0,0 l/m 0,00 h 0,03 h 0 W/m 0,2 km/h (0 Bft) 95,94 %
08.07.2020 00:00 15,6 C 14,2 C 13,7 C 79 % 1017,4 hPa 0,0 l/m 0,00 h 0,10 h 0 W/m 0,1 km/h (0 Bft) 97,17 %
08.07.2020 01:00 15,0 C 12,2 C 12,2 C 83 % 1017,5 hPa 0,2 l/m 0,00 h 0,30 h 0 W/m 0,2 km/h (0 Bft) 96,61 %
08.07.2020 02:00 14,2 C 12,2 C 12,0 C 86 % 1016,8 hPa 0,0 l/m 0,00 h 0,00 h 0 W/m 0,0 km/h (0 Bft) 97,65 %
08.07.2020 03:00 13,8 C 12,3 C 12,2 C 89 % 1016,3 hPa 0,0 l/m 0,00 h 0,00 h 0 W/m 0,0 km/h (0 Bft) 96,94 %
08.07.2020 04:00 13,6 C 12,0 C 12,0 C 91 % 1015,8 hPa 0,0 l/m 0,00 h 0,33 h 0 W/m 0,0 km/h (0 Bft) 97,35 %
08.07.2020 05:00 13,3 C 11,8 C 11,7 C 93 % 1015,7 hPa 0,2 l/m 0,00 h 0,53 h 0 W/m 0,0 km/h (0 Bft) 96,65 %
08.07.2020 06:00 13,4 C 12,2 C 12,1 C 94 % 1015,9 hPa 0,4 l/m 0,00 h 0,97 h 11 W/m 0,0 km/h (0 Bft) 99,41 %
08.07.2020 07:00 13,4 C 12,1 C 12,0 C 96 % 1015,9 hPa 0,4 l/m 0,00 h 0,90 h 56 W/m 3,0 km/h (1 Bft) 95,58 %
08.07.2020 08:00 13,1 C 12,1 C 11,7 C 96 % 1016,1 hPa 0,0 l/m 0,00 h 0,53 h 88 W/m 9,2 km/h (2 Bft) 96,70 %
08.07.2020 09:00 13,2 C 12,7 C 12,0 C 96 % 1016,2 hPa 0,0 l/m 0,00 h 0,10 h 145 W/m 9,2 km/h (2 Bft) 99,50 %
08.07.2020 10:00 13,6 C 12,7 C 12,2 C 94 % 1016,4 hPa 0,4 l/m 0,00 h 0,73 h 153 W/m 12,0 km/h (2 Bft) 96,87 %
08.07.2020 11:00 14,1 C 13,0 C 12,7 C 95 % 1016,4 hPa 0,4 l/m 0,00 h 1,00 h 178 W/m 12,1 km/h (2 Bft) 96,66 %
08.07.2020 12:00 14,6 C 13,6 C 13,2 C 96 % 1016,4 hPa 0,4 l/m 0,00 h 1,00 h 194 W/m 13,6 km/h (3 Bft) 99,56 %
08.07.2020 13:00 15,0 C 14,2 C 13,7 C 96 % 1016,5 hPa 0,0 l/m 0,00 h 0,33 h 151 W/m 10,9 km/h (2 Bft) 96,03 %
08.07.2020 14:00 15,2 C 14,1 C 13,6 C 95 % 1016,6 hPa 0,2 l/m 0,00 h 0,07 h 94 W/m 6,2 km/h (2 Bft) 98,08 %
08.07.2020 15:00 15,6 C 14,9 C 14,0 C 96 % 1016,6 hPa 0,0 l/m 0,00 h 0,00 h 122 W/m 9,2 km/h (2 Bft) 97,74 %
08.07.2020 16:00 15,9 C 15,1 C 14,4 C 96 % 1016,7 hPa 0,0 l/m 0,00 h 0,00 h 121 W/m 6,6 km/h (2 Bft) 96,23 %
08.07.2020 17:00 16,4 C 16,7 C 15,1 C 97 % 1016,5 hPa 0,0 l/m 0,00 h 0,00 h 124 W/m 7,0 km/h (2 Bft) 99,51 %
08.07.2020 18:00 17,0 C 17,1 C 15,3 C 95 % 1016,1 hPa 0,0 l/m 0,00 h 0,00 h 104 W/m 5,5 km/h (1 Bft) 96,80 %
08.07.2020 19:00 17,1 C 15,2 C 15,0 C 93 % 1016,1 hPa 0,2 l/m 0,00 h 0,23 h 29 W/m 0,9 km/h (0 Bft) 95,95 %
08.07.2020 20:00 17,0 C 15,5 C 15,0 C 95 % 1016,1 hPa 0,2 l/m 0,00 h 0,20 h 26 W/m 0,0 km/h (0 Bft) 99,69 %
08.07.2020 21:00 16,7 C 15,0 C 14,9 C 96 % 1016,1 hPa 0,2 l/m 0,00 h 0,13 h 6 W/m 1,4 km/h (1 Bft) 97,22 %
08.07.2020 22:00 16,2 C 14,8 C 14,4 C 97 % 1016,0 hPa 0,0 l/m 0,00 h 0,00 h 0 W/m 4,8 km/h (1 Bft) 95,45 %
08.07.2020 23:00 16,0 C 14,7 C 14,4 C 98 % 1016,3 hPa 0,0 l/m 0,00 h 0,00 h 0 W/m 2,1 km/h (1 Bft) 99,79 %
09.07.2020 00:00 15,9 C 14,4 C 14,4 C 98 % 1015,9 hPa 0,2 l/m 0,00 h 0,37 h 0 W/m 1,2 km/h (1 Bft) 97,41 %
09.07.2020 01:00 15,7 C 14,4 C 13,9 C 99 % 1015,5 hPa 0,0 l/m 0,00 h 0,00 h 0 W/m 0,6 km/h (0 Bft) 95,52 %
09.07.2020 02:00 15,6 C 14,4 C 14,0 C 99 % 1015,0 hPa 0,0 l/m 0,00 h 0,03 h 0 W/m 0,9 km/h (0 Bft) 98,79 %
09.07.2020 03:00 15,7 C 14,5 C 14,4 C 99 % 1014,8 hPa 0,0 l/m 0,00 h 0,00 h 0 W/m 2,3 km/h (1 Bft) 96,87 %
09.07.2020 04:00 16,0 C 15,0 C 14,4 C 100 % 1014,4 hPa 0,2 l/m 0,00 h 0,37 h 0 W/m 4,5 km/h (1 Bft) 97,63 %
09.07.2020 05:00 16,2 C 15,0 C 15,0 C 100 % 1014,5 hPa 0,8 l/m 0,00 h 0,83 h 0 W/m 5,5 km/h (1 Bft) 97,65 %
09.07.2020 06:00 16,3 C 15,3 C 15,0 C 100 % 1014,2 hPa 0,4 l/m 0,00 h 0,33 h 8 W/m 13,2 km/h (3 Bft) 97,02 %
09.07.2020 07:00 16,5 C 15,6 C 15,0 C 100 % 1014,1 hPa 0,0 l/m 0,00 h 0,03 h 29 W/m 11,5 km/h (2 Bft) 98,51 %
09.07.2020 08:00 16,9 C 16,5 C 15,6 C 100 % 1013,8 hPa 0,0 l/m 0,00 h 0,00 h 88 W/m 14,3 km/h (3 Bft) 96,79 %
09.07.2020 09:00 17,4 C 17,1 C 16,3 C 100 % 1013,8 hPa 0,0 l/m 0,00 h 0,00 h 121 W/m 16,2 km/h (3 Bft) 96,93 %
09.07.2020 10:00 18,4 C 18,7 C 17,2 C 97 % 1013,6 hPa 0,0 l/m 0,00 h 0,03 h 190 W/m 15,8 km/h (3 Bft) 98,15 %
09.07.2020 11:00 19,1 C 19,9 C 17,7 C 92 % 1013,6 hPa 0,0 l/m 0,23 h 0,17 h 282 W/m 16,1 km/h (3 Bft) 96,68 %
09.07.2020 12:00 21,4 C 24,6 C 21,9 C 82 % 1013,6 hPa 0,0 l/m 0,87 h 0,00 h 568 W/m 20,9 km/h (4 Bft) 98,42 %
09.07.2020 13:00 22,2 C 23,4 C 22,2 C 74 % 1013,6 hPa 0,0 l/m 0,40 h 0,00 h 417 W/m 18,4 km/h (3 Bft) 96,43 %
09.07.2020 14:00 22,8 C 23,6 C 22,3 C 73 % 1013,4 hPa 0,0 l/m 0,43 h 0,00 h 333 W/m 19,4 km/h (3 Bft) 96,87 %
09.07.2020 15:00 22,2 C 22,3 C 21,1 C 76 % 1013,3 hPa 0,0 l/m 0,00 h 0,13 h 220 W/m 14,4 km/h (3 Bft) 99,00 %
09.07.2020 16:00 22,7 C 24,0 C 22,1 C 76 % 1013,0 hPa 0,0 l/m 0,53 h 0,00 h 350 W/m 13,3 km/h (3 Bft) 97,03 %
09.07.2020 17:00 23,3 C 23,5 C 22,1 C 72 % 1012,8 hPa 0,0 l/m 0,23 h 0,00 h 247 W/m 16,7 km/h (3 Bft) 96,94 %
09.07.2020 18:00 22,7 C 21,8 C 21,0 C 73 % 1012,5 hPa 0,0 l/m 0,00 h 0,03 h 122 W/m 17,4 km/h (3 Bft) 97,86 %
09.07.2020 19:00 21,9 C 21,6 C 20,5 C 75 % 1012,2 hPa 0,0 l/m 0,10 h 0,00 h 126 W/m 8,9 km/h (2 Bft) 98,46 %
09.07.2020 20:00 21,7 C 20,7 C 19,6 C 77 % 1012,1 hPa 0,0 l/m 0,00 h 0,00 h 56 W/m 3,4 km/h (1 Bft) 97,08 %
09.07.2020 21:00 20,8 C 18,5 C 17,7 C 80 % 1011,8 hPa 0,0 l/m 0,00 h 0,00 h 11 W/m 0,7 km/h (0 Bft) 96,03 %
09.07.2020 22:00 19,1 C 16,4 C 15,8 C 84 % 1011,7 hPa 0,0 l/m 0,00 h 0,00 h 0 W/m 0,0 km/h (0 Bft) 98,28 %
09.07.2020 23:00 17,9 C 16,5 C 15,8 C 89 % 1011,5 hPa 0,0 l/m 0,00 h 0,00 h 0 W/m 0,2 km/h (0 Bft) 97,84 %
10.07.2020 00:00 17,6 C 16,3 C 15,8 C 90 % 1011,0 hPa 0,0 l/m 0,00 h 0,00 h 0 W/m 0,7 km/h (0 Bft) 96,47 %
10.07.2020 01:00 17,6 C 16,8 C 16,5 C 92 % 1010,6 hPa 0,0 l/m 0,00 h 0,00 h 0 W/m 1,6 km/h (1 Bft) 97,22 %
10.07.2020 02:00 17,7 C 17,0 C 16,6 C 92 % 1010,2 hPa 0,0 l/m 0,00 h 0,00 h 0 W/m 4,4 km/h (1 Bft) 98,50 %
10.07.2020 03:00 18,0 C 17,3 C 16,7 C 91 % 1009,4 hPa 0,0 l/m 0,00 h 0,00 h 0 W/m 7,2 km/h (2 Bft) 97,34 %
10.07.2020 04:00 18,3 C 17,7 C 17,1 C 89 % 1008,7 hPa 0,0 l/m 0,00 h 0,00 h 0 W/m 10,7 km/h (2 Bft) 96,16 %
10.07.2020 05:00 18,7 C 17,8 C 17,2 C 89 % 1008,3 hPa 0,0 l/m 0,00 h 0,00 h 6 W/m 13,8 km/h (3 Bft) 97,86 %
10.07.2020 06:00 18,5 C 17,6 C 17,1 C 87 % 1008,5 hPa 0,0 l/m 0,00 h 0,00 h 9 W/m 12,7 km/h (3 Bft) 96,99 %
10.07.2020 07:00 18,1 C 17,2 C 16,7 C 86 % 1008,6 hPa 0,0 l/m 0,00 h 0,00 h 22 W/m 14,6 km/h (3 Bft) 96,52 %
10.07.2020 08:00 17,8 C 16,8 C 16,3 C 89 % 1008,8 hPa 0,0 l/m 0,00 h 0,27 h 64 W/m 14,6 km/h (3 Bft) 95,80 %
10.07.2020 09:00 17,2 C 16,0 C 15,6 C 95 % 1009,3 hPa 0,4 l/m 0,07 h 0,13 h 147 W/m 16,1 km/h (3 Bft) 99,22 %
10.07.2020 10:00 17,4 C 16,3 C 15,9 C 96 % 1009,9 hPa 0,0 l/m 0,00 h 0,30 h 170 W/m 16,7 km/h (3 Bft) 98,08 %
10.07.2020 11:00 18,2 C 18,8 C 17,3 C 96 % 1010,7 hPa 1,4 l/m 0,17 h 0,23 h 287 W/m 14,7 km/h (3 Bft) 95,37 %
10.07.2020 12:00 17,4 C 18,1 C 16,5 C 93 % 1012,3 hPa 0,2 l/m 0,20 h 0,00 h 386 W/m 16,9 km/h (3 Bft) 99,34 %
10.07.2020 13:00 18,7 C 23,0 C 20,8 C 88 % 1013,5 hPa 0,0 l/m 0,45 h 0,00 h 550 W/m 10,7 km/h (2 Bft) 98,14 %
10.07.2020 14:00 21,1 C 24,1 C 21,4 C 77 % 1014,2 hPa 0,0 l/m 0,37 h 0,00 h 496 W/m 13,3 km/h (3 Bft) 95,01 %
10.07.2020 15:00 19,1 C 18,1 C 17,2 C 79 % 1015,2 hPa 0,0 l/m 0,07 h 0,10 h 152 W/m 11,9 km/h (2 Bft) 97,59 %
10.07.2020 16:00 19,2 C 20,9 C 19,1 C 79 % 1016,2 hPa 0,0 l/m 0,30 h 0,00 h 365 W/m 11,3 km/h (2 Bft) 95,71 %
10.07.2020 17:00 19,6 C 21,1 C 18,5 C 75 % 1016,8 hPa 0,0 l/m 0,63 h 0,00 h 369 W/m 11,8 km/h (2 Bft) 98,44 %
10.07.2020 18:00 19,8 C 20,3 C 18,0 C 72 % 1017,2 hPa 0,0 l/m 0,73 h 0,00 h 356 W/m 10,8 km/h (2 Bft) 96,53 %
10.07.2020 19:00 18,5 C 17,3 C 16,3 C 76 % 1017,6 hPa 0,0 l/m 0,17 h 0,00 h 110 W/m 8,5 km/h (2 Bft) 93,69 %
10.07.2020 20:00 17,0 C 15,6 C 15,0 C 78 % 1018,1 hPa 0,0 l/m 0,00 h 0,00 h 42 W/m 5,4 km/h (1 Bft) 99,20 %
10.07.2020 21:00 16,0 C 14,0 C 13,6 C 81 % 1018,6 hPa 0,0 l/m 0,00 h 0,00 h 13 W/m 1,2 km/h (1 Bft) 94,74 %
10.07.2020 22:00 14,8 C 12,5 C 12,3 C 84 % 1019,2 hPa 0,0 l/m 0,00 h 0,00 h 0 W/m 0,3 km/h (0 Bft) 98,42 %
10.07.2020 23:00 13,8 C 11,9 C 11,7 C 86 % 1019,8 hPa 0,0 l/m 0,00 h 0,00 h 0 W/m 0,4 km/h (0 Bft) 96,80 %
11.07.2020 00:00 12,8 C 10,4 C 10,3 C 87 % 1020,4 hPa 0,0 l/m 0,00 h 0,00 h 0 W/m 0,0 km/h (0 Bft) 96,78 %
11.07.2020 01:00 11,8 C 9,6 C 9,6 C 89 % 1020,9 hPa 0,0 l/m 0,00 h 0,00 h 0 W/m 0,0 km/h (0 Bft) 98,49 %
11.07.2020 02:00 11,1 C 9,3 C 9,3 C 91 % 1021,5 hPa 0,0 l/m 0,00 h 0,00 h 0 W/m 0,7 km/h (0 Bft) 98,56 %
11.07.2020 03:00 10,5 C 8,7 C 8,8 C 92 % 1021,8 hPa 0,0 l/m 0,00 h 0,00 h 0 W/m 0,6 km/h (0 Bft) 97,02 %
11.07.2020 04:00 9,9 C 8,0 C 8,2 C 93 % 1021,9 hPa 0,0 l/m 0,00 h 0,00 h 0 W/m 0,3 km/h (0 Bft) 96,09 %
11.07.2020 05:00 9,3 C 7,8 C 7,8 C 94 % 1022,3 hPa 0,0 l/m 0,00 h 0,00 h 7 W/m 0,2 km/h (0 Bft) 99,15 %
11.07.2020 06:00 9,1 C 8,5 C 8,3 C 95 % 1022,7 hPa 0,0 l/m 0,00 h 0,00 h 18 W/m 0,2 km/h (0 Bft) 97,42 %
11.07.2020 07:00 9,9 C 10,3 C 9,4 C 97 % 1023,3 hPa 0,0 l/m 0,00 h 0,00 h 30 W/m 2,0 km/h (1 Bft) 97,65 %
11.07.2020 08:00 12,2 C 18,5 C 15,6 C 98 % 1023,8 hPa 0,0 l/m 0,00 h 0,00 h 54 W/m 2,6 km/h (1 Bft) 96,39 %
11.07.2020 09:00 16,5 C 22,3 C 26,0 C 83 % 1024,1 hPa 0,0 l/m 0,87 h 0,00 h 509 W/m 5,4 km/h (1 Bft) 96,30 %
11.07.2020 10:00 18,6 C 23,1 C 25,2 C 70 % 1024,4 hPa 0,0 l/m 0,83 h 0,00 h 709 W/m 6,8 km/h (2 Bft) 98,16 %
11.07.2020 11:00 19,4 C 22,5 C 21,8 C 66 % 1024,7 hPa 0,0 l/m 0,53 h 0,00 h 558 W/m 7,3 km/h (2 Bft) 97,70 %
11.07.2020 12:00 20,3 C 25,3 C 21,8 C 64 % 1024,9 hPa 0,0 l/m 0,80 h 0,00 h 749 W/m 7,2 km/h (2 Bft) 99,04 %
11.07.2020 13:00 22,3 C 26,5 C 24,9 C 58 % 1024,8 hPa 0,0 l/m 0,83 h 0,00 h 832 W/m 9,4 km/h (2 Bft) 97,51 %
11.07.2020 14:00 23,4 C 28,1 C 26,1 C 54 % 1024,8 hPa 0,0 l/m 0,93 h 0,00 h 960 W/m 9,5 km/h (2 Bft) 94,87 %
11.07.2020 15:00 23,3 C 24,7 C 21,9 C 54 % 1024,9 hPa 0,0 l/m 0,43 h 0,00 h 509 W/m 10,6 km/h (2 Bft) 99,55 %
11.07.2020 16:00 20,1 C 20,2 C 19,3 C 66 % 1024,9 hPa 0,0 l/m 0,23 h 0,00 h 245 W/m 9,3 km/h (2 Bft) 98,08 %
11.07.2020 17:00 21,1 C 22,5 C 20,3 C 61 % 1025,2 hPa 0,0 l/m 0,53 h 0,00 h 342 W/m 6,8 km/h (2 Bft) 95,37 %
11.07.2020 18:00 20,1 C 18,9 C 18,4 C 65 % 1025,3 hPa 0,0 l/m 0,00 h 0,00 h 105 W/m 8,9 km/h (2 Bft) 98,67 %
11.07.2020 19:00 18,2 C 16,8 C 16,8 C 71 % 1025,6 hPa 0,0 l/m 0,00 h 0,00 h 48 W/m 5,1 km/h (1 Bft) 97,37 %
11.07.2020 20:00 17,6 C 16,7 C 16,3 C 72 % 1025,8 hPa 0,0 l/m 0,00 h 0,00 h 60 W/m 5,6 km/h (1 Bft) 96,65 %
11.07.2020 21:00 16,9 C 15,0 C 14,6 C 71 % 1026,0 hPa 0,0 l/m 0,07 h 0,00 h 17 W/m 1,1 km/h (0 Bft) 98,15 %
11.07.2020 22:00 15,5 C 12,6 C 12,2 C 77 % 1026,5 hPa 0,0 l/m 0,00 h 0,00 h 0 W/m 0,0 km/h (0 Bft) 97,07 %
11.07.2020 23:00 13,9 C 11,3 C 11,1 C 82 % 1026,8 hPa 0,0 l/m 0,00 h 0,00 h 0 W/m 0,0 km/h (0 Bft) 97,29 %
12.07.2020 00:00 12,7 C 10,7 C 10,6 C 85 % 1026,9 hPa 0,0 l/m 0,00 h 0,00 h 0 W/m 0,4 km/h (0 Bft) 95,30 %
12.07.2020 01:00 11,9 C 9,9 C 10,0 C 87 % 1027,0 hPa 0,0 l/m 0,00 h 0,00 h 0 W/m 0,5 km/h (0 Bft) 93,26 %
12.07.2020 02:00 11,3 C 9,3 C 9,4 C 89 % 1027,0 hPa 0,0 l/m 0,00 h 0,00 h 0 W/m 0,1 km/h (0 Bft) 98,08 %
12.07.2020 03:00 10,7 C 9,0 C 9,1 C 91 % 1027,1 hPa 0,0 l/m 0,00 h 0,00 h 0 W/m 0,0 km/h (0 Bft) 96,41 %
12.07.2020 04:00 10,2 C 8,5 C 8,9 C 92 % 1027,1 hPa 0,0 l/m 0,00 h 0,00 h 0 W/m 0,1 km/h (0 Bft) 99,43 %
12.07.2020 05:00 9,9 C 8,3 C 8,4 C 93 % 1027,3 hPa 0,0 l/m 0,00 h 0,00 h 6 W/m 0,0 km/h (0 Bft) 93,53 %
12.07.2020 06:00 9,6 C 8,6 C 8,6 C 94 % 1027,6 hPa 0,0 l/m 0,00 h 0,00 h 17 W/m 0,0 km/h (0 Bft) 98,86 %
12.07.2020 07:00 10,2 C 10,5 C 9,8 C 96 % 1027,9 hPa 0,0 l/m 0,00 h 0,00 h 34 W/m 0,0 km/h (0 Bft) 97,65 %
12.07.2020 08:00 12,8 C 18,6 C 16,1 C 98 % 1028,3 hPa 0,0 l/m 0,00 h 0,00 h 61 W/m 0,0 km/h (0 Bft) 97,01 %
12.07.2020 09:00 17,4 C 22,9 C 28,1 C 83 % 1028,7 hPa 0,0 l/m 0,93 h 0,00 h 500 W/m 0,0 km/h (0 Bft) 98,86 %
12.07.2020 10:00 20,0 C 24,1 C 27,5 C 68 % 1028,7 hPa 0,0 l/m 0,77 h 0,00 h 625 W/m 5,6 km/h (1 Bft) 97,79 %
12.07.2020 11:00 21,6 C 25,5 C 24,2 C 61 % 1028,5 hPa 0,0 l/m 0,67 h 0,00 h 647 W/m 7,6 km/h (2 Bft) 98,22 %
12.07.2020 12:00 22,2 C 27,0 C 22,5 C 55 % 1028,6 hPa 0,0 l/m 0,83 h 0,00 h 818 W/m 7,7 km/h (2 Bft) 95,51 %
12.07.2020 13:00 23,3 C 27,9 C 26,7 C 53 % 1028,5 hPa 0,0 l/m 0,80 h 0,00 h 860 W/m 7,9 km/h (2 Bft) 97,44 %
12.07.2020 14:00 25,0 C 29,8 C 27,7 C 48 % 1028,1 hPa 0,0 l/m 0,87 h 0,00 h 958 W/m 8,0 km/h (2 Bft) 99,36 %
12.07.2020 15:00 24,8 C 28,7 C 23,7 C 47 % 1027,7 hPa 0,0 l/m 0,93 h 0,00 h 883 W/m 6,3 km/h (2 Bft) 95,37 %
12.07.2020 16:00 25,4 C 26,9 C 25,1 C 45 % 1027,3 hPa 0,0 l/m 0,67 h 0,00 h 612 W/m 5,6 km/h (1 Bft) 97,86 %
12.07.2020 17:00 24,1 C 25,5 C 22,8 C 48 % 1026,9 hPa 0,0 l/m 0,67 h 0,00 h 461 W/m 3,8 km/h (1 Bft) 99,50 %
12.07.2020 18:00 23,5 C 23,0 C 21,3 C 51 % 1026,7 hPa 0,0 l/m 0,53 h 0,00 h 264 W/m 2,5 km/h (1 Bft) 95,59 %
12.07.2020 19:00 22,8 C 21,1 C 19,7 C 52 % 1026,5 hPa 0,0 l/m 0,27 h 0,00 h 145 W/m 0,0 km/h (0 Bft) 97,51 %
12.07.2020 20:00 20,9 C 19,1 C 17,9 C 57 % 1026,2 hPa 0,0 l/m 0,00 h 0,00 h 46 W/m 0,0 km/h (0 Bft) 98,72 %
12.07.2020 21:00 19,4 C 16,8 C 15,9 C 61 % 1026,3 hPa 0,0 l/m 0,00 h 0,00 h 12 W/m 0,0 km/h (0 Bft) 96,46 %
12.07.2020 22:00 17,7 C 15,2 C 14,7 C 66 % 1026,5 hPa 0,0 l/m 0,00 h 0,00 h 0 W/m 0,0 km/h (0 Bft) 97,65 %
12.07.2020 23:00 16,4 C 14,6 C 14,1 C 71 % 1026,4 hPa 0,0 l/m 0,00 h 0,00 h 0 W/m 0,0 km/h (0 Bft) 97,87 %
Min-Datum _ 11.07.20 07.07.20 07.07.20 12.07.20 10.07.20 - - - - 06.07.20 12.07.20
_ Min-Zeit 06:10 04:52 04:08 16:22 05:24 - - - - 15:30 01:56
Minimum _ 9,0 C 7,8 C 7,8 C 42 % 1008,2 hPa - - - - 0,0 km/h (0 Bft) 40,74 %
Max-Datum _ 12.07.20 12.07.20 12.07.20 09.07.20 12.07.20 10.07.20 06.07.20 08.07.20 11.07.20 06.07.20 06.07.20
_ Max-Zeit 16:26 14:04 13:56 03:58 10:04 11:38 12:08 06:08 13:02 14:48 00:04
Maximum _ 26,1 C 31,7 C 37,8 C 100 % 1028,9 hPa 1,4 l/m 0,07 h 0,07 h 1181 W/m 45,1 km/h
SO (6 Bft)
100,00 %
Durchschnitt _ 16,8 C 16,7 C 15,9 C 81 % 1018,7 hPa #8,4 l/m #28:33 h #12:42 h 249 W/m 7,1 km/h (2 Bft) 97,30 %
© 2020 W. Hausmann